Terminal Aerodrome Forecast
Issued by NWS

Home | Current Version | Previous Version | Text Only | Print | Product List | Glossary On
Versions: 1 2 3 4 5 6 7 8 9 10 11 12 13 14 15 16 17 18 19 20
047
FTUS43 KICT 291731
TAFHUT
TAF
KHUT 291731Z 2918/3018 03018G26KT 5SM -SHRA BR BKN006 OVC015
     FM292200 36015G24KT 5SM -SHRA OVC008
     FM300300 36015G25KT 5SM BR VCSH OVC006=

USA.gov is the U.S. government's official web portal to all federal, state and local government web resources and services.